Hovedside
METAR-TAF:

METAR-TAF

Lufthavner :

Esbjerg, Danmark

Esbjerg lufthavn

breddegrad: 55-32N, lengdegrad: 008-34E, høyde over havet: 30 m

Gjeldene værobservasjon

Denne rapporten ble laget for 35 minutter siden, klokken 13:50 UTC
Vind 15 kt fra Sør-sørvest
Temperatur 11°C
Luftfuktighet 94%
Trykk 997 hPa
Sikt: 7000 m

METAR: EKEB 221350Z AUTO 20015KT 7000NDV OVC006/// 11/10 Q0997

Tid: 15:25 (14:25 UTC)

Varsel

Denne rapporten ble laget for 3 timer og 15 minutter siden, klokken 11:10 UTC
Varsel gyldig fra 22. klokken 12 UTC til 22. klokken 21 UTC
Vind 15 kt fra Sørvest
Sikt: 8000 m
Brutte skyer i en høyde av 1500 ft
Midlertidig
fra 22. klokken 12 UTC til 22. klokken 17 UTC
Sikt: 4000 m
Brutte skyer i en høyde av 400 ft
regn, duskregn, dis
Midlertidig
fra 22. klokken 17 UTC til 22. klokken 20 UTC
Brutte skyer i en høyde av 1000 ft

TAF: EKEB 221110Z 2212/2221 23015KT 8000 BKN015 TEMPO 2212/2217 4000 RADZ BR BKN004 TEMPO 2217/2220 BKN010

Værobservasjoner og værvarsel for over 4000 flyplasser (METAR- og TAF-rapporter).

Tilgjengelige stasjoner er representert av de røde og gule prikkene på kartet.

Hold musepekeren over prikken for å se navnet på stasjonen.

Klikk så for å se værobservasjoner og -varsler.

For å forandre kartet kan du klikke på den grønne knappen med svart kryss for å zoome inn, på den grønne knappen med strek for å zoome ut, eller på de grønne pilene for å se tilstøtende kart.


METAR-TAF: